Time;durP1;ratioP1;P1;durP2;ratioP2;P2;SDS_P1;SDS_P2;PMS_P1;PMS_P2;Temp;Humidity;BMP_temperature;BMP_pressure;BME280_temperature;BME280_humidity;BME280_pressure;Samples;Min_cycle;Max_cycle;Signal;HPM_P1;HPM_P2
2022/09/02 00:02:22;;;;;;;12.15;5.00;;;;;;;;;;5032178;28;20313;-43
2022/09/02 00:04:48;;;;;;;8.45;5.30;;;;;;;;;;5002484;28;20450;-40
2022/09/02 00:07:15;;;;;;;9.55;5.72;;;;;;;;;;5032301;28;20495;-40
2022/09/02 00:09:43;;;;;;;11.27;5.43;;;;;;;;;;5018154;28;20095;-41
2022/09/02 00:12:10;;;;;;;8.70;4.83;;;;;;;;;;5031822;28;20439;-43
2022/09/02 00:14:38;;;;;;;9.73;5.38;;;;;;;;;;5019244;28;20118;-40
2022/09/02 00:17:05;;;;;;;9.70;4.93;;;;;;;;;;5033105;28;20060;-41
2022/09/02 00:19:31;;;;;;;9.55;5.63;;;;;;;;;;5010787;28;20100;-45
2022/09/02 00:21:59;;;;;;;9.52;5.22;;;;;;;;;;5019810;28;20037;-43
2022/09/02 00:24:25;;;;;;;8.80;5.30;;;;;;;;;;5015910;28;20505;-43
2022/09/02 00:26:53;;;;;;;11.50;6.57;;;;;;;;;;5014323;28;20037;-42
2022/09/02 00:29:20;;;;;;;10.43;5.75;;;;;;;;;;5033123;28;20045;-42
2022/09/02 00:31:46;;;;;;;11.05;5.65;;;;;;;;;;5037019;28;20074;-41
2022/09/02 00:34:13;;;;;;;10.02;6.13;;;;;;;;;;5030942;28;20438;-41
2022/09/02 00:36:40;;;;;;;12.63;6.03;;;;;;;;;;5033595;28;20053;-43
2022/09/02 00:39:07;;;;;;;9.77;6.13;;;;;;;;;;5018656;28;20042;-41
2022/09/02 00:41:34;;;;;;;11.15;6.22;;;;;;;;;;5018965;28;20399;-40
2022/09/02 00:44:03;;;;;;;9.93;5.60;;;;;;;;;;5023460;28;20029;-43
2022/09/02 00:46:31;;;;;;;9.40;5.53;;;;;;;;;;5021023;28;20099;-40
2022/09/02 00:49:00;;;;;;;8.73;5.87;;;;;;;;;;5029799;28;20040;-41
2022/09/02 00:51:29;;;;;;;11.20;5.95;;;;;;;;;;5024655;28;20037;-40
2022/09/02 00:53:55;;;;;;;13.93;6.32;;;;;;;;;;5012008;28;20032;-41
2022/09/02 00:56:24;;;;;;;9.55;5.50;;;;;;;;;;5024711;28;20049;-40
2022/09/02 00:58:51;;;;;;;9.82;5.85;;;;;;;;;;5014237;28;20045;-42
2022/09/02 01:01:21;;;;;;;11.00;5.23;;;;;;;;;;5013218;28;20052;-43
2022/09/02 01:03:47;;;;;;;10.13;5.88;;;;;;;;;;5029079;28;20048;-40
2022/09/02 01:06:15;;;;;;;9.65;5.57;;;;;;;;;;5038090;28;20441;-39
2022/09/02 01:08:43;;;;;;;9.35;5.22;;;;;;;;;;5030209;28;20159;-42
2022/09/02 01:11:10;;;;;;;10.25;5.18;;;;;;;;;;5036851;28;20094;-44
2022/09/02 01:13:38;;;;;;;8.67;5.00;;;;;;;;;;5025529;28;20075;-42
2022/09/02 01:16:09;;;;;;;9.02;5.18;;;;;;;;;;5032963;28;20033;-41
2022/09/02 01:18:38;;;;;;;10.63;5.00;;;;;;;;;;5028839;28;20048;-40
2022/09/02 01:21:05;;;;;;;9.32;5.82;;;;;;;;;;5027547;28;20041;-42
2022/09/02 01:23:33;;;;;;;10.55;5.32;;;;;;;;;;5016794;28;20041;-42
2022/09/02 01:26:00;;;;;;;9.83;5.30;;;;;;;;;;5037973;28;20523;-40
2022/09/02 01:28:27;;;;;;;9.02;5.20;;;;;;;;;;5023587;28;20037;-41
2022/09/02 01:30:54;;;;;;;9.52;5.53;;;;;;;;;;5005481;28;20034;-44
2022/09/02 01:33:21;;;;;;;8.60;4.75;;;;;;;;;;5022821;28;20475;-43
2022/09/02 01:35:48;;;;;;;9.00;4.88;;;;;;;;;;5032023;28;20044;-42
2022/09/02 01:38:14;;;;;;;8.67;4.40;;;;;;;;;;5031218;28;20523;-43
2022/09/02 01:40:42;;;;;;;10.02;5.47;;;;;;;;;;5019572;28;20051;-40
2022/09/02 01:43:10;;;;;;;8.30;4.90;;;;;;;;;;5035603;28;20037;-45
2022/09/02 01:45:38;;;;;;;13.43;4.93;;;;;;;;;;5012672;28;20083;-42
2022/09/02 01:48:06;;;;;;;9.30;4.75;;;;;;;;;;5034865;28;20052;-42
2022/09/02 01:50:33;;;;;;;8.40;4.30;;;;;;;;;;5020955;28;20045;-40
2022/09/02 01:53:02;;;;;;;8.32;4.68;;;;;;;;;;5030926;28;20505;-41
2022/09/02 01:55:29;;;;;;;9.10;4.57;;;;;;;;;;5025856;28;20410;-41
2022/09/02 01:57:57;;;;;;;7.57;4.10;;;;;;;;;;4993620;28;20029;-42
2022/09/02 02:00:24;;;;;;;6.65;3.50;;;;;;;;;;5025666;28;20044;-43
2022/09/02 02:02:51;;;;;;;8.50;3.80;;;;;;;;;;5010985;28;20510;-40
2022/09/02 02:05:18;;;;;;;9.43;4.00;;;;;;;;;;5025741;28;20370;-44
2022/09/02 02:07:45;;;;;;;8.38;3.97;;;;;;;;;;5022728;28;20045;-42
2022/09/02 02:10:12;;;;;;;8.15;4.30;;;;;;;;;;5030669;28;20501;-41
2022/09/02 02:12:39;;;;;;;10.45;3.83;;;;;;;;;;5023536;28;20503;-43
2022/09/02 02:15:10;;;;;;;6.77;3.60;;;;;;;;;;5029094;28;20037;-42
2022/09/02 02:17:36;;;;;;;8.30;3.78;;;;;;;;;;5017950;28;20025;-42
2022/09/02 02:20:04;;;;;;;7.00;3.55;;;;;;;;;;5034002;28;20049;-40
2022/09/02 02:22:30;;;;;;;6.82;3.15;;;;;;;;;;5009522;28;20578;-41
2022/09/02 02:24:57;;;;;;;6.82;3.70;;;;;;;;;;5015558;28;20052;-40
2022/09/02 02:27:24;;;;;;;9.20;3.50;;;;;;;;;;5033393;28;20147;-42
2022/09/02 02:29:50;;;;;;;6.03;3.20;;;;;;;;;;5028093;28;20072;-43
2022/09/02 02:32:18;;;;;;;7.30;3.78;;;;;;;;;;5027646;28;20045;-44
2022/09/02 02:34:45;;;;;;;7.32;3.15;;;;;;;;;;5023410;28;21525;-41
2022/09/02 02:37:12;;;;;;;6.88;3.15;;;;;;;;;;5032350;28;20089;-40
2022/09/02 02:39:38;;;;;;;5.97;3.20;;;;;;;;;;5004333;28;20041;-41
2022/09/02 02:42:06;;;;;;;7.55;2.97;;;;;;;;;;5030275;28;20090;-40
2022/09/02 02:44:33;;;;;;;8.80;3.60;;;;;;;;;;5024213;28;20041;-44
2022/09/02 02:46:59;;;;;;;7.47;3.50;;;;;;;;;;5028135;28;20097;-40
2022/09/02 02:49:27;;;;;;;7.20;3.60;;;;;;;;;;5002575;28;20397;-41
2022/09/02 02:51:54;;;;;;;7.50;3.27;;;;;;;;;;5028178;28;20041;-40
2022/09/02 02:54:21;;;;;;;5.95;3.17;;;;;;;;;;5013369;28;20052;-40
2022/09/02 02:56:47;;;;;;;6.78;3.25;;;;;;;;;;5025791;28;20545;-41
2022/09/02 02:59:14;;;;;;;7.00;3.15;;;;;;;;;;5025092;28;20033;-42
2022/09/02 03:01:41;;;;;;;8.15;3.03;;;;;;;;;;5025016;28;20029;-41
2022/09/02 03:04:07;;;;;;;7.40;3.00;;;;;;;;;;5020114;28;20052;-41
2022/09/02 03:06:35;;;;;;;7.80;4.10;;;;;;;;;;4999736;28;20909;-41
2022/09/02 03:09:02;;;;;;;7.13;3.25;;;;;;;;;;5032141;28;20459;-40
2022/09/02 03:11:28;;;;;;;7.45;3.03;;;;;;;;;;5034727;28;20083;-42
2022/09/02 03:13:55;;;;;;;11.18;3.63;;;;;;;;;;5025147;28;20831;-40
2022/09/02 03:16:21;;;;;;;8.10;3.47;;;;;;;;;;5034304;28;20056;-45
2022/09/02 03:18:48;;;;;;;6.45;3.15;;;;;;;;;;5007866;28;20045;-40
2022/09/02 03:21:15;;;;;;;7.07;3.00;;;;;;;;;;5029647;28;20045;-39
2022/09/02 03:23:43;;;;;;;7.75;3.03;;;;;;;;;;5022875;28;20041;-43
2022/09/02 03:26:10;;;;;;;7.25;3.08;;;;;;;;;;5013778;28;20501;-40
2022/09/02 03:28:37;;;;;;;10.30;3.30;;;;;;;;;;5018211;28;20045;-40
2022/09/02 03:31:03;;;;;;;6.60;3.33;;;;;;;;;;5033842;28;20048;-43
2022/09/02 03:33:30;;;;;;;8.43;3.33;;;;;;;;;;5020229;28;20049;-40
2022/09/02 03:35:57;;;;;;;9.50;3.30;;;;;;;;;;5031849;28;20044;-39
2022/09/02 03:38:23;;;;;;;7.45;2.70;;;;;;;;;;5019228;28;20054;-40
2022/09/02 03:40:51;;;;;;;6.73;2.77;;;;;;;;;;5013541;28;20040;-41
2022/09/02 03:43:18;;;;;;;6.43;3.10;;;;;;;;;;5029270;28;20041;-40
2022/09/02 03:45:45;;;;;;;10.45;3.42;;;;;;;;;;5009323;28;20037;-42
2022/09/02 03:48:12;;;;;;;5.53;2.58;;;;;;;;;;5019572;28;20044;-42
2022/09/02 03:50:40;;;;;;;7.53;2.97;;;;;;;;;;5025768;28;20513;-43
2022/09/02 03:53:07;;;;;;;7.83;3.13;;;;;;;;;;5025293;28;20525;-42
2022/09/02 03:55:33;;;;;;;7.30;3.20;;;;;;;;;;5024771;28;20083;-40
2022/09/02 03:58:01;;;;;;;6.53;2.60;;;;;;;;;;5033995;28;20045;-40
2022/09/02 04:00:30;;;;;;;8.02;3.67;;;;;;;;;;4997417;28;20177;-44
2022/09/02 04:02:57;;;;;;;9.50;3.20;;;;;;;;;;5029094;28;20045;-41
2022/09/02 04:05:25;;;;;;;6.50;3.00;;;;;;;;;;5035884;28;20141;-40
2022/09/02 04:07:52;;;;;;;7.75;3.30;;;;;;;;;;5022019;28;20035;-41
2022/09/02 04:10:18;;;;;;;10.13;3.60;;;;;;;;;;5032116;28;20044;-40
2022/09/02 04:12:45;;;;;;;7.65;3.10;;;;;;;;;;5023159;28;20564;-40
2022/09/02 04:15:13;;;;;;;7.28;3.03;;;;;;;;;;5030731;28;20087;-43
2022/09/02 04:17:41;;;;;;;9.33;3.70;;;;;;;;;;5027355;28;20106;-40
2022/09/02 04:20:10;;;;;;;6.95;3.08;;;;;;;;;;5034858;28;20064;-40
2022/09/02 04:22:37;;;;;;;7.28;3.88;;;;;;;;;;5033242;28;20033;-44
2022/09/02 04:25:05;;;;;;;7.47;3.70;;;;;;;;;;5047339;28;20037;-40
2022/09/02 04:27:31;;;;;;;8.13;3.53;;;;;;;;;;5029988;28;20051;-44
2022/09/02 04:29:58;;;;;;;7.53;2.93;;;;;;;;;;5014142;28;20506;-42
2022/09/02 04:32:26;;;;;;;9.95;2.88;;;;;;;;;;5032899;28;20464;-45
2022/09/02 04:34:53;;;;;;;8.50;2.85;;;;;;;;;;5030614;28;20052;-44
2022/09/02 04:37:19;;;;;;;10.30;3.60;;;;;;;;;;5038427;28;20486;-40
2022/09/02 04:39:46;;;;;;;7.90;2.85;;;;;;;;;;5027741;28;20048;-40
2022/09/02 04:42:12;;;;;;;7.47;3.47;;;;;;;;;;5034417;28;20041;-42
2022/09/02 04:44:39;;;;;;;8.48;2.85;;;;;;;;;;5025797;28;20419;-46
2022/09/02 04:47:05;;;;;;;6.40;3.05;;;;;;;;;;5038322;28;20051;-40
2022/09/02 04:49:33;;;;;;;8.68;2.78;;;;;;;;;;5028471;28;20105;-40
2022/09/02 04:52:00;;;;;;;7.78;2.60;;;;;;;;;;5035003;28;20087;-40
2022/09/02 04:54:27;;;;;;;9.60;2.90;;;;;;;;;;5001658;28;20132;-40
2022/09/02 04:56:53;;;;;;;6.75;2.70;;;;;;;;;;5028554;28;20052;-41
2022/09/02 04:59:20;;;;;;;6.85;3.00;;;;;;;;;;4998932;28;20052;-42
2022/09/02 05:01:46;;;;;;;7.47;2.88;;;;;;;;;;5029363;28;20032;-41
2022/09/02 05:04:13;;;;;;;7.20;3.08;;;;;;;;;;5022976;28;20095;-41
2022/09/02 05:06:41;;;;;;;6.43;3.00;;;;;;;;;;5025263;28;20048;-41
2022/09/02 05:09:07;;;;;;;7.80;3.50;;;;;;;;;;5026694;28;20057;-40
2022/09/02 05:11:34;;;;;;;7.25;2.95;;;;;;;;;;5021587;28;20475;-42
2022/09/02 05:14:01;;;;;;;8.18;3.40;;;;;;;;;;5035103;28;20041;-40
2022/09/02 05:16:29;;;;;;;5.93;2.97;;;;;;;;;;5025134;28;20053;-40
2022/09/02 05:18:56;;;;;;;9.30;3.40;;;;;;;;;;5036630;28;20041;-41
2022/09/02 05:21:23;;;;;;;7.18;3.10;;;;;;;;;;5021290;28;20699;-42
2022/09/02 05:23:51;;;;;;;6.93;3.42;;;;;;;;;;5033516;28;20047;-40
2022/09/02 05:26:18;;;;;;;9.45;3.85;;;;;;;;;;5028889;28;20033;-40
2022/09/02 05:28:44;;;;;;;7.28;3.55;;;;;;;;;;5033981;28;20376;-40
2022/09/02 05:31:12;;;;;;;10.37;2.87;;;;;;;;;;5029127;28;20033;-41
2022/09/02 05:33:40;;;;;;;6.80;3.47;;;;;;;;;;5016609;28;20045;-40
2022/09/02 05:36:08;;;;;;;8.63;3.33;;;;;;;;;;5020431;28;20116;-41
2022/09/02 05:38:34;;;;;;;9.45;3.50;;;;;;;;;;5025814;28;20098;-42
2022/09/02 05:41:06;;;;;;;7.30;3.13;;;;;;;;;;5019190;28;20037;-42
2022/09/02 05:43:34;;;;;;;5.93;3.10;;;;;;;;;;5036608;28;20044;-41
2022/09/02 05:46:05;;;;;;;9.38;4.00;;;;;;;;;;5031165;28;20047;-42
2022/09/02 05:51:16;;;;;;;6.55;3.38;;;;;;;;;;5022973;28;20176;-43
2022/09/02 05:53:43;;;;;;;10.25;3.70;;;;;;;;;;5022170;28;20677;-42
2022/09/02 05:56:11;;;;;;;10.73;4.00;;;;;;;;;;5017846;28;20037;-40
2022/09/02 05:58:38;;;;;;;10.13;3.25;;;;;;;;;;5024030;28;20816;-42
2022/09/02 06:01:07;;;;;;;6.80;2.90;;;;;;;;;;5029952;28;20122;-41
2022/09/02 06:03:33;;;;;;;8.00;3.65;;;;;;;;;;5018008;28;20037;-41
2022/09/02 06:06:00;;;;;;;9.63;3.20;;;;;;;;;;5027055;28;20041;-41
2022/09/02 06:08:26;;;;;;;7.77;3.67;;;;;;;;;;5010232;28;20041;-41
2022/09/02 06:10:53;;;;;;;9.60;3.33;;;;;;;;;;5034413;28;20091;-41
2022/09/02 06:13:21;;;;;;;9.40;3.40;;;;;;;;;;5024030;28;20033;-42
2022/09/02 06:15:48;;;;;;;7.50;3.10;;;;;;;;;;5031393;28;20500;-43
2022/09/02 06:18:15;;;;;;;7.85;3.22;;;;;;;;;;5026047;28;20040;-41
2022/09/02 06:20:42;;;;;;;8.90;3.60;;;;;;;;;;5028645;28;20636;-41
2022/09/02 06:23:09;;;;;;;8.38;3.47;;;;;;;;;;5025543;28;20136;-40
2022/09/02 06:25:36;;;;;;;6.18;3.20;;;;;;;;;;5027222;28;20283;-40
2022/09/02 06:28:03;;;;;;;10.20;3.20;;;;;;;;;;5029554;28;20539;-41
2022/09/02 06:30:31;;;;;;;10.23;3.40;;;;;;;;;;5028163;28;20124;-42
2022/09/02 06:32:58;;;;;;;5.53;2.77;;;;;;;;;;5020861;28;20045;-41
2022/09/02 06:35:25;;;;;;;8.50;2.85;;;;;;;;;;5024675;28;20193;-44
2022/09/02 06:37:52;;;;;;;8.00;2.88;;;;;;;;;;5014785;28;20048;-42
2022/09/02 06:40:18;;;;;;;6.32;2.70;;;;;;;;;;5019799;28;20317;-43
2022/09/02 06:42:47;;;;;;;6.53;2.90;;;;;;;;;;5024753;28;20079;-40
2022/09/02 06:45:13;;;;;;;7.23;3.40;;;;;;;;;;5030652;28;20048;-42
2022/09/02 06:47:41;;;;;;;6.72;2.53;;;;;;;;;;5021779;28;20525;-43
2022/09/02 06:50:09;;;;;;;7.80;2.53;;;;;;;;;;5027332;28;20124;-41
2022/09/02 06:52:35;;;;;;;7.78;3.03;;;;;;;;;;5023204;28;20044;-43
2022/09/02 06:55:02;;;;;;;9.40;2.70;;;;;;;;;;5026756;28;20033;-44
2022/09/02 06:57:29;;;;;;;9.80;3.40;;;;;;;;;;5008437;28;20040;-41
2022/09/02 06:59:56;;;;;;;12.98;3.53;;;;;;;;;;5030249;28;20098;-41
2022/09/02 07:02:22;;;;;;;9.50;3.47;;;;;;;;;;5002599;28;20756;-41
2022/09/02 07:05:09;;;;;;;9.10;3.00;;;;;;;;;;5022003;28;20108;-41
2022/09/02 07:07:36;;;;;;;9.18;3.55;;;;;;;;;;5025100;28;20443;-42
2022/09/02 07:10:04;;;;;;;12.30;3.53;;;;;;;;;;5030398;28;20041;-41
2022/09/02 07:12:30;;;;;;;8.38;3.38;;;;;;;;;;5009597;28;20403;-43
2022/09/02 07:14:57;;;;;;;8.32;3.45;;;;;;;;;;5000389;28;20124;-41
2022/09/02 07:17:24;;;;;;;8.38;3.45;;;;;;;;;;5028935;28;20099;-41
2022/09/02 07:19:54;;;;;;;10.05;3.80;;;;;;;;;;5019793;28;20060;-41
2022/09/02 07:22:21;;;;;;;9.80;3.50;;;;;;;;;;5028312;28;20065;-42
2022/09/02 07:24:47;;;;;;;8.65;3.53;;;;;;;;;;5002656;28;20041;-41
2022/09/02 07:27:14;;;;;;;8.23;3.40;;;;;;;;;;5025682;28;20056;-41
2022/09/02 07:29:42;;;;;;;6.85;2.95;;;;;;;;;;5024726;28;20045;-42
2022/09/02 07:32:09;;;;;;;6.97;3.03;;;;;;;;;;5025940;28;20072;-41
2022/09/02 07:34:36;;;;;;;6.80;2.87;;;;;;;;;;5022931;28;20354;-42
2022/09/02 07:37:04;;;;;;;7.30;3.40;;;;;;;;;;5030619;28;20053;-40
2022/09/02 07:39:31;;;;;;;9.20;3.92;;;;;;;;;;5025097;28;20459;-41
2022/09/02 07:41:58;;;;;;;7.22;3.00;;;;;;;;;;5031016;28;20037;-43
2022/09/02 07:44:25;;;;;;;6.70;3.08;;;;;;;;;;5019214;28;20041;-42
2022/09/02 07:46:51;;;;;;;11.27;3.50;;;;;;;;;;5003267;28;20373;-41
2022/09/02 07:49:19;;;;;;;10.98;3.65;;;;;;;;;;5026113;28;20040;-40
2022/09/02 07:51:48;;;;;;;9.25;3.60;;;;;;;;;;5032994;28;20130;-42
2022/09/02 07:54:17;;;;;;;12.15;4.20;;;;;;;;;;5011954;28;20493;-40
2022/09/02 07:56:43;;;;;;;9.20;3.72;;;;;;;;;;5024683;28;20443;-41
2022/09/02 07:59:10;;;;;;;7.77;3.63;;;;;;;;;;5019943;28;20037;-41
2022/09/02 08:01:37;;;;;;;12.55;4.38;;;;;;;;;;5021648;28;20048;-41
2022/09/02 08:04:04;;;;;;;7.05;3.35;;;;;;;;;;5017862;28;20285;-41
2022/09/02 08:06:32;;;;;;;8.20;3.45;;;;;;;;;;5011249;28;20072;-40
2022/09/02 08:08:58;;;;;;;9.38;4.38;;;;;;;;;;5003012;28;20425;-40
2022/09/02 08:11:27;;;;;;;8.23;3.50;;;;;;;;;;5023048;28;20046;-40
2022/09/02 08:13:54;;;;;;;7.65;3.55;;;;;;;;;;5029638;28;20037;-41
2022/09/02 08:16:20;;;;;;;9.45;3.83;;;;;;;;;;5020874;28;20687;-41
2022/09/02 08:18:47;;;;;;;8.30;3.97;;;;;;;;;;5024383;28;20060;-42
2022/09/02 08:21:14;;;;;;;7.88;3.35;;;;;;;;;;5014068;28;20040;-41
2022/09/02 08:23:40;;;;;;;12.00;4.33;;;;;;;;;;4988705;28;20135;-40
2022/09/02 08:26:08;;;;;;;7.38;3.50;;;;;;;;;;5004561;28;20041;-40
2022/09/02 08:28:35;;;;;;;10.93;4.27;;;;;;;;;;4317320;28;10000894;-40
2022/09/02 08:31:04;;;;;;;8.35;3.38;;;;;;;;;;4995405;28;20048;-40
2022/09/02 08:33:31;;;;;;;8.35;3.85;;;;;;;;;;5005847;28;20037;-40
2022/09/02 08:36:01;;;;;;;7.22;3.85;;;;;;;;;;5007367;28;20037;-40
2022/09/02 08:38:28;;;;;;;8.90;4.10;;;;;;;;;;4985627;28;20054;-41
2022/09/02 08:40:54;;;;;;;11.75;4.05;;;;;;;;;;4991384;28;20545;-42
2022/09/02 08:43:28;;;;;;;9.82;3.83;;;;;;;;;;4983523;28;20060;-40
2022/09/02 08:45:58;;;;;;;9.30;3.70;;;;;;;;;;4992661;28;20052;-41
2022/09/02 08:48:31;;;;;;;7.60;3.65;;;;;;;;;;4972891;28;20597;-42
2022/09/02 08:51:00;;;;;;;10.57;4.57;;;;;;;;;;4995278;28;20454;-40
2022/09/02 08:53:31;;;;;;;8.27;4.13;;;;;;;;;;4637574;28;10000468;-41
2022/09/02 08:55:58;;;;;;;9.93;4.53;;;;;;;;;;4992255;28;20038;-43
2022/09/02 08:58:28;;;;;;;11.52;4.55;;;;;;;;;;4991362;28;20042;-39
2022/09/02 09:00:59;;;;;;;10.07;4.45;;;;;;;;;;4978032;28;20388;-43
2022/09/02 09:03:28;;;;;;;8.18;3.72;;;;;;;;;;4967324;28;20045;-41
2022/09/02 09:05:59;;;;;;;8.57;4.00;;;;;;;;;;4991250;28;20095;-44
2022/09/02 09:08:28;;;;;;;10.50;4.07;;;;;;;;;;4996739;28;20045;-40
2022/09/02 09:10:59;;;;;;;8.30;4.10;;;;;;;;;;4992161;28;20049;-42
2022/09/02 09:13:37;;;;;;;7.90;4.25;;;;;;;;;;4982521;28;20054;-40
2022/09/02 09:16:08;;;;;;;7.90;3.38;;;;;;;;;;4991998;28;20045;-41
2022/09/02 09:18:37;;;;;;;10.63;3.92;;;;;;;;;;4996706;28;20085;-41
2022/09/02 09:21:04;;;;;;;10.67;4.10;;;;;;;;;;4992949;28;20045;-41
2022/09/02 09:23:33;;;;;;;10.45;4.15;;;;;;;;;;4991559;28;20052;-43
2022/09/02 09:26:05;;;;;;;9.32;3.92;;;;;;;;;;4988415;28;20810;-42
2022/09/02 09:28:32;;;;;;;7.38;3.60;;;;;;;;;;4979966;28;20631;-41
2022/09/02 09:31:00;;;;;;;11.80;3.83;;;;;;;;;;4991274;28;20150;-41
2022/09/02 09:33:28;;;;;;;9.77;4.10;;;;;;;;;;4990061;28;20064;-41
2022/09/02 09:35:57;;;;;;;7.72;4.28;;;;;;;;;;4993181;28;20048;-44
2022/09/02 09:38:31;;;;;;;9.13;4.70;;;;;;;;;;4995338;28;20132;-40
2022/09/02 09:41:10;;;;;;;10.73;4.03;;;;;;;;;;4983149;28;20049;-42
2022/09/02 09:43:37;;;;;;;10.30;4.03;;;;;;;;;;4990788;28;20041;-41
2022/09/02 09:46:19;;;;;;;7.97;3.80;;;;;;;;;;4992831;28;20030;-42
2022/09/02 09:48:50;;;;;;;8.00;4.22;;;;;;;;;;4997566;28;20060;-42
2022/09/02 09:51:16;;;;;;;10.75;4.85;;;;;;;;;;4970932;28;20575;-41
2022/09/02 09:53:43;;;;;;;8.32;3.72;;;;;;;;;;4977096;28;20057;-41
2022/09/02 09:56:26;;;;;;;8.05;4.20;;;;;;;;;;4994491;28;20656;-42
2022/09/02 09:58:53;;;;;;;14.77;5.40;;;;;;;;;;4971659;28;20045;-41
2022/09/02 10:01:21;;;;;;;9.93;3.88;;;;;;;;;;5009667;28;20038;-44
2022/09/02 10:03:49;;;;;;;11.65;4.03;;;;;;;;;;5008712;28;20096;-43
2022/09/02 10:06:21;;;;;;;6.78;3.97;;;;;;;;;;5010322;28;20041;-43
2022/09/02 10:08:52;;;;;;;8.55;4.18;;;;;;;;;;5007360;28;20095;-41
2022/09/02 10:11:20;;;;;;;10.00;4.27;;;;;;;;;;4993076;28;20792;-42
2022/09/02 10:13:47;;;;;;;9.98;3.50;;;;;;;;;;5013252;28;20511;-42
2022/09/02 10:16:19;;;;;;;7.07;4.00;;;;;;;;;;4978604;28;20570;-40
2022/09/02 10:18:49;;;;;;;8.07;3.60;;;;;;;;;;5001646;28;20476;-40
2022/09/02 10:21:25;;;;;;;8.38;3.85;;;;;;;;;;4991155;28;20561;-41
2022/09/02 10:23:55;;;;;;;8.60;3.33;;;;;;;;;;5001084;28;20110;-43
2022/09/02 10:26:25;;;;;;;7.13;3.45;;;;;;;;;;4996712;28;20038;-43
2022/09/02 10:29:13;;;;;;;9.30;3.50;;;;;;;;;;5013125;28;20041;-45
2022/09/02 10:31:43;;;;;;;10.15;3.67;;;;;;;;;;4987248;28;20496;-41
2022/09/02 10:34:13;;;;;;;10.82;4.72;;;;;;;;;;5008297;28;20065;-43
2022/09/02 10:36:50;;;;;;;7.07;2.60;;;;;;;;;;5007806;28;20639;-44
2022/09/02 10:39:22;;;;;;;8.57;3.70;;;;;;;;;;5024254;28;20041;-42
2022/09/02 10:41:49;;;;;;;8.73;3.30;;;;;;;;;;5007888;28;20508;-43
2022/09/02 10:44:27;;;;;;;8.18;3.58;;;;;;;;;;5019238;28;20036;-44
2022/09/02 10:46:58;;;;;;;9.65;3.13;;;;;;;;;;5015574;28;20044;-44
2022/09/02 10:49:31;;;;;;;9.97;3.07;;;;;;;;;;5013995;28;20041;-42
2022/09/02 10:52:05;;;;;;;8.13;3.10;;;;;;;;;;5025464;28;20041;-41
2022/09/02 10:54:39;;;;;;;9.02;3.08;;;;;;;;;;4668030;28;9999845;-41
2022/09/02 10:57:10;;;;;;;9.35;3.38;;;;;;;;;;5010620;28;20095;-41
2022/09/02 10:59:40;;;;;;;11.03;3.33;;;;;;;;;;5029632;28;20105;-42
2022/09/02 11:02:10;;;;;;;7.53;3.55;;;;;;;;;;5022068;28;20045;-41
2022/09/02 11:04:39;;;;;;;8.20;2.85;;;;;;;;;;5019006;28;20033;-42
2022/09/02 11:07:09;;;;;;;15.55;3.05;;;;;;;;;;5002149;28;20716;-42
2022/09/02 11:09:37;;;;;;;7.07;2.78;;;;;;;;;;5027921;28;20040;-43
2022/09/02 11:12:06;;;;;;;5.77;2.30;;;;;;;;;;5020037;28;20034;-41
2022/09/02 11:14:35;;;;;;;7.85;3.13;;;;;;;;;;5017575;28;21940;-42
2022/09/02 11:17:05;;;;;;;7.43;3.38;;;;;;;;;;5027054;28;20348;-42
2022/09/02 11:19:35;;;;;;;8.05;3.08;;;;;;;;;;5007136;28;20041;-40
2022/09/02 11:22:08;;;;;;;6.20;3.05;;;;;;;;;;5015586;28;20051;-41
2022/09/02 11:24:42;;;;;;;8.33;2.90;;;;;;;;;;5021978;28;20173;-44
2022/09/02 11:27:12;;;;;;;6.70;2.95;;;;;;;;;;5022727;28;20055;-39
2022/09/02 11:29:43;;;;;;;7.38;2.63;;;;;;;;;;5025372;28;20581;-42
2022/09/02 11:32:13;;;;;;;5.93;2.65;;;;;;;;;;5023926;28;20155;-40
2022/09/02 11:34:43;;;;;;;9.70;2.60;;;;;;;;;;5023416;28;20050;-40
2022/09/02 11:37:10;;;;;;;8.43;2.37;;;;;;;;;;5027671;28;20114;-41
2022/09/02 11:39:41;;;;;;;6.28;2.47;;;;;;;;;;5024898;28;20041;-41
2022/09/02 11:42:22;;;;;;;8.82;2.90;;;;;;;;;;5030341;28;20052;-41
2022/09/02 11:45:17;;;;;;;6.38;2.50;;;;;;;;;;5030560;28;20532;-41
2022/09/02 11:47:57;;;;;;;6.35;2.50;;;;;;;;;;5021895;28;20576;-41
2022/09/02 11:50:28;;;;;;;8.07;2.30;;;;;;;;;;5020385;28;20429;-43
2022/09/02 11:53:00;;;;;;;7.05;2.78;;;;;;;;;;5031430;28;20376;-42
2022/09/02 11:55:31;;;;;;;4.72;1.90;;;;;;;;;;5025748;28;20073;-45
2022/09/02 11:57:58;;;;;;;4.70;1.88;;;;;;;;;;5033342;28;20106;-42
2022/09/02 12:00:30;;;;;;;7.38;2.20;;;;;;;;;;5022774;28;20072;-41
2022/09/02 12:03:18;;;;;;;6.20;1.80;;;;;;;;;;5027639;28;20123;-43
2022/09/02 12:05:50;;;;;;;6.53;1.85;;;;;;;;;;5022087;28;20640;-41
2022/09/02 12:08:35;;;;;;;5.13;2.08;;;;;;;;;;5026514;28;20038;-41
2022/09/02 12:11:04;;;;;;;6.72;2.00;;;;;;;;;;5025199;28;20212;-42
2022/09/02 12:13:42;;;;;;;7.60;2.42;;;;;;;;;;4677958;28;10000754;-43
2022/09/02 12:16:27;;;;;;;8.43;2.10;;;;;;;;;;5022321;28;20251;-40
2022/09/02 12:19:09;;;;;;;7.63;2.50;;;;;;;;;;5006756;28;20037;-39
2022/09/02 12:21:37;;;;;;;7.53;1.73;;;;;;;;;;5028384;28;20045;-41
2022/09/02 12:24:08;;;;;;;6.38;2.33;;;;;;;;;;5025814;28;20049;-41
2022/09/02 12:26:53;;;;;;;7.05;1.65;;;;;;;;;;5025664;28;20052;-41
2022/09/02 12:29:32;;;;;;;5.78;2.00;;;;;;;;;;5023861;28;20500;-41
2022/09/02 12:31:58;;;;;;;4.97;1.40;;;;;;;;;;5031232;28;20086;-43
2022/09/02 12:34:45;;;;;;;5.95;1.83;;;;;;;;;;5027615;28;20041;-40
2022/09/02 12:37:36;;;;;;;6.70;2.20;;;;;;;;;;4998603;28;20081;-39
2022/09/02 12:40:23;;;;;;;5.40;1.73;;;;;;;;;;5026967;28;20491;-40
2022/09/02 12:42:50;;;;;;;5.25;2.00;;;;;;;;;;5025021;28;20566;-42
2022/09/02 12:45:23;;;;;;;5.57;1.53;;;;;;;;;;5021245;28;20046;-42
2022/09/02 12:47:57;;;;;;;4.80;1.48;;;;;;;;;;5019520;28;20045;-41
2022/09/02 12:50:26;;;;;;;6.75;2.10;;;;;;;;;;4996326;28;20068;-41
2022/09/02 12:53:07;;;;;;;4.35;1.48;;;;;;;;;;5016856;28;20045;-45
2022/09/02 12:55:35;;;;;;;5.45;1.70;;;;;;;;;;5010044;28;20096;-41
2022/09/02 12:58:07;;;;;;;5.90;1.90;;;;;;;;;;5021639;28;20041;-42
2022/09/02 13:00:38;;;;;;;6.35;1.88;;;;;;;;;;5033164;28;20040;-40
2022/09/02 13:03:20;;;;;;;5.40;2.22;;;;;;;;;;5027700;28;20135;-41
2022/09/02 13:05:52;;;;;;;7.30;1.90;;;;;;;;;;5017253;28;20045;-41
2022/09/02 13:08:39;;;;;;;6.70;2.83;;;;;;;;;;5018615;28;20491;-42
2022/09/02 13:11:25;;;;;;;6.90;1.53;;;;;;;;;;4314614;28;10000182;-41
2022/09/02 13:14:01;;;;;;;8.00;1.98;;;;;;;;;;5023730;28;20507;-40
2022/09/02 13:16:33;;;;;;;7.23;2.30;;;;;;;;;;5025710;28;20446;-41
2022/09/02 13:19:32;;;;;;;6.45;2.17;;;;;;;;;;5015772;28;20382;-41
2022/09/02 13:22:09;;;;;;;6.38;2.03;;;;;;;;;;4963716;28;20699;-40
2022/09/02 13:24:50;;;;;;;5.05;1.85;;;;;;;;;;4970259;28;20133;-41
2022/09/02 13:27:28;;;;;;;7.88;3.03;;;;;;;;;;5001600;28;20146;-42
2022/09/02 13:30:13;;;;;;;4.87;1.70;;;;;;;;;;5022968;28;20068;-48
2022/09/02 13:32:41;;;;;;;4.93;1.63;;;;;;;;;;5018828;28;20044;-43
2022/09/02 13:35:10;;;;;;;6.05;1.80;;;;;;;;;;5025303;28;20495;-44
2022/09/02 13:37:37;;;;;;;5.72;1.90;;;;;;;;;;5006611;28;20036;-41
2022/09/02 13:40:06;;;;;;;7.75;2.33;;;;;;;;;;5034427;28;20033;-42
2022/09/02 13:42:32;;;;;;;6.13;2.10;;;;;;;;;;5024538;28;20874;-41
2022/09/02 13:45:09;;;;;;;5.55;2.05;;;;;;;;;;5032386;28;20503;-40
2022/09/02 13:47:36;;;;;;;6.40;2.22;;;;;;;;;;5004058;28;20033;-40
2022/09/02 13:50:05;;;;;;;6.15;2.10;;;;;;;;;;5027635;28;20503;-41
2022/09/02 13:52:31;;;;;;;5.30;2.20;;;;;;;;;;5021681;28;20041;-41
2022/09/02 13:54:58;;;;;;;6.77;2.03;;;;;;;;;;5011748;28;20041;-41
2022/09/02 13:57:26;;;;;;;8.88;2.30;;;;;;;;;;5014779;28;20167;-41
2022/09/02 13:59:53;;;;;;;5.68;1.52;;;;;;;;;;5022902;28;20697;-44
2022/09/02 14:02:21;;;;;;;6.40;2.35;;;;;;;;;;5026999;28;20049;-43
2022/09/02 14:04:50;;;;;;;5.40;1.85;;;;;;;;;;5017459;28;20037;-42
2022/09/02 14:07:19;;;;;;;5.20;1.53;;;;;;;;;;5016950;28;20096;-41
2022/09/02 14:09:45;;;;;;;6.72;2.15;;;;;;;;;;5033444;28;20048;-40
2022/09/02 14:12:12;;;;;;;5.88;1.90;;;;;;;;;;5030102;28;20511;-40
2022/09/02 14:14:41;;;;;;;5.75;2.03;;;;;;;;;;5008623;28;20089;-43
2022/09/02 14:17:24;;;;;;;5.53;2.28;;;;;;;;;;5034363;28;20049;-42
2022/09/02 14:19:50;;;;;;;7.30;2.40;;;;;;;;;;5024574;28;20126;-44
2022/09/02 14:22:27;;;;;;;6.75;2.53;;;;;;;;;;5031799;28;20112;-44
2022/09/02 14:24:54;;;;;;;7.40;2.20;;;;;;;;;;5023259;28;20062;-40
2022/09/02 14:27:21;;;;;;;8.57;2.55;;;;;;;;;;5011826;28;20041;-39
2022/09/02 14:29:51;;;;;;;7.80;2.50;;;;;;;;;;5025796;28;20036;-41
2022/09/02 14:32:21;;;;;;;10.93;2.43;;;;;;;;;;5031336;28;20113;-42
2022/09/02 14:34:48;;;;;;;5.15;1.95;;;;;;;;;;5020176;28;20412;-42
2022/09/02 14:37:22;;;;;;;10.18;1.98;;;;;;;;;;5034957;28;20049;-40
2022/09/02 14:39:54;;;;;;;11.75;3.28;;;;;;;;;;5014115;28;20474;-42
2022/09/02 14:42:20;;;;;;;7.15;2.13;;;;;;;;;;5022260;28;20045;-41
2022/09/02 14:44:47;;;;;;;5.83;2.07;;;;;;;;;;5031830;28;20566;-40
2022/09/02 14:47:15;;;;;;;7.32;2.72;;;;;;;;;;4998772;28;20041;-43
2022/09/02 14:49:46;;;;;;;6.38;2.00;;;;;;;;;;5010333;28;20033;-40
2022/09/02 14:52:16;;;;;;;7.10;1.58;;;;;;;;;;5025700;28;20726;-44
2022/09/02 14:54:44;;;;;;;7.38;2.20;;;;;;;;;;5029747;28;20076;-40
2022/09/02 14:57:21;;;;;;;6.87;2.17;;;;;;;;;;5023735;28;20086;-40